METAR Data
IDs: Format: Raw Decoded Include TAF

Data at: 0215 UTC 23 Apr 2021

No METAR found for KWVI

KSNS 230153Z 30010KT 9SM OVC012 12/08 A2998 RMK AO2 SLP160 T01170083

KMRY 230154Z 27007KT 7SM OVC014 12/08 A2999 RMK AO2 SLP166 T01220078

KSJC 230153Z 33018KT 10SM FEW015 FEW023 13/07 A2994 RMK AO2 SLP139 T01280072

KSFO 230156Z 26012G18KT 10SM FEW005 BKN012 12/07 A2996 RMK AO2 SLP145 T01170067

KHAF 230155Z AUTO 30007KT 2 1/2SM BR OVC012 09/07 A2999 RMK AO2